sensor_id;sensor_type;location;lat;lon;timestamp;pressure;altitude;pressure_sealevel;temperature;humidity
24892;BME280;12954;50.688;10.908;2023-02-28T00:01:33;96623.41;;;-2.33;59.17
24892;BME280;12954;50.688;10.908;2023-02-28T00:04:01;96602.88;;;-2.53;58.72
24892;BME280;12954;50.688;10.908;2023-02-28T00:06:30;96604.31;;;-2.43;58.58
24892;BME280;12954;50.688;10.908;2023-02-28T00:08:58;96621.25;;;-2.29;58.91
24892;BME280;12954;50.688;10.908;2023-02-28T00:11:27;96631.00;;;-2.30;58.81
24892;BME280;12954;50.688;10.908;2023-02-28T00:13:55;96620.13;;;-2.35;59.01
24892;BME280;12954;50.688;10.908;2023-02-28T00:16:25;96618.13;;;-2.33;58.36
24892;BME280;12954;50.688;10.908;2023-02-28T00:18:54;96601.41;;;-2.48;58.58
24892;BME280;12954;50.688;10.908;2023-02-28T00:21:22;96587.88;;;-2.53;59.31
24892;BME280;12954;50.688;10.908;2023-02-28T00:23:50;96615.47;;;-2.33;58.71
24892;BME280;12954;50.688;10.908;2023-02-28T00:26:19;96589.81;;;-2.47;59.13
24892;BME280;12954;50.688;10.908;2023-02-28T00:28:47;96615.13;;;-2.30;59.07
24892;BME280;12954;50.688;10.908;2023-02-28T00:31:16;96617.69;;;-2.36;58.87
24892;BME280;12954;50.688;10.908;2023-02-28T00:33:46;96593.75;;;-2.43;58.49
24892;BME280;12954;50.688;10.908;2023-02-28T00:36:15;96618.44;;;-2.27;58.72
24892;BME280;12954;50.688;10.908;2023-02-28T00:38:43;96604.31;;;-2.43;58.68
24892;BME280;12954;50.688;10.908;2023-02-28T00:41:11;96529.84;;;-3.00;59.27
24892;BME280;12954;50.688;10.908;2023-02-28T00:43:40;96572.81;;;-2.75;59.27
24892;BME280;12954;50.688;10.908;2023-02-28T00:46:09;96617.19;;;-2.40;58.36
24892;BME280;12954;50.688;10.908;2023-02-28T00:48:38;96615.59;;;-2.49;58.77
24892;BME280;12954;50.688;10.908;2023-02-28T00:51:07;96605.44;;;-2.68;59.44
24892;BME280;12954;50.688;10.908;2023-02-28T00:53:36;96623.91;;;-2.60;59.61
24892;BME280;12954;50.688;10.908;2023-02-28T00:56:05;96618.63;;;-2.60;59.31
24892;BME280;12954;50.688;10.908;2023-02-28T00:58:34;96618.28;;;-2.57;59.35
24892;BME280;12954;50.688;10.908;2023-02-28T01:01:02;96585.03;;;-2.74;59.58
24892;BME280;12954;50.688;10.908;2023-02-28T01:03:31;96588.44;;;-2.65;59.37
24892;BME280;12954;50.688;10.908;2023-02-28T01:05:59;96606.69;;;-2.48;59.98
24892;BME280;12954;50.688;10.908;2023-02-28T01:08:29;96602.66;;;-2.44;59.41
24892;BME280;12954;50.688;10.908;2023-02-28T01:10:57;96597.38;;;-2.44;59.10
24892;BME280;12954;50.688;10.908;2023-02-28T01:13:26;96595.97;;;-2.54;59.32
24892;BME280;12954;50.688;10.908;2023-02-28T01:15:55;96608.66;;;-2.50;59.25
24892;BME280;12954;50.688;10.908;2023-02-28T01:18:24;96555.41;;;-2.92;59.42
24892;BME280;12954;50.688;10.908;2023-02-28T01:20:52;96608.16;;;-2.53;59.63
24892;BME280;12954;50.688;10.908;2023-02-28T01:23:21;96537.44;;;-2.97;59.06
24892;BME280;12954;50.688;10.908;2023-02-28T01:25:52;96508.63;;;-3.14;58.90
24892;BME280;12954;50.688;10.908;2023-02-28T01:28:21;96606.69;;;-2.48;59.37
24892;BME280;12954;50.688;10.908;2023-02-28T01:30:49;96605.84;;;-2.48;59.32
24892;BME280;12954;50.688;10.908;2023-02-28T01:33:18;96609.47;;;-2.49;58.96
24892;BME280;12954;50.688;10.908;2023-02-28T01:35:46;96580.19;;;-2.70;59.05
24892;BME280;12954;50.688;10.908;2023-02-28T01:38:15;96604.69;;;-2.46;59.37
24892;BME280;12954;50.688;10.908;2023-02-28T01:40:49;96602.66;;;-2.44;58.92
24892;BME280;12954;50.688;10.908;2023-02-28T01:43:22;96605.16;;;-2.42;59.32
24892;BME280;12954;50.688;10.908;2023-02-28T01:45:51;96601.34;;;-2.40;59.46
24892;BME280;12954;50.688;10.908;2023-02-28T01:48:22;96531.59;;;-2.84;59.30
24892;BME280;12954;50.688;10.908;2023-02-28T01:50:55;96556.84;;;-2.59;58.70
24892;BME280;12954;50.688;10.908;2023-02-28T01:53:29;96525.63;;;-2.78;58.74
24892;BME280;12954;50.688;10.908;2023-02-28T01:56:00;96526.09;;;-2.74;59.08
24892;BME280;12954;50.688;10.908;2023-02-28T01:58:30;96592.25;;;-2.37;58.56
24892;BME280;12954;50.688;10.908;2023-02-28T02:00:58;96590.59;;;-2.38;59.13
24892;BME280;12954;50.688;10.908;2023-02-28T02:03:30;96522.78;;;-2.76;59.08
24892;BME280;12954;50.688;10.908;2023-02-28T02:05:59;96565.91;;;-2.53;59.11
24892;BME280;12954;50.688;10.908;2023-02-28T02:08:28;96551.34;;;-2.72;58.74
24892;BME280;12954;50.688;10.908;2023-02-28T02:10:59;96581.41;;;-2.50;59.29
24892;BME280;12954;50.688;10.908;2023-02-28T02:13:44;96586.88;;;-2.52;58.88
24892;BME280;12954;50.688;10.908;2023-02-28T02:16:34;96580.41;;;-2.49;58.94
24892;BME280;12954;50.688;10.908;2023-02-28T02:19:17;96557.69;;;-2.58;59.13
24892;BME280;12954;50.688;10.908;2023-02-28T02:22:18;96575.78;;;-2.47;58.75
24892;BME280;12954;50.688;10.908;2023-02-28T02:25:11;96572.97;;;-2.46;59.35
24892;BME280;12954;50.688;10.908;2023-02-28T02:30:58;96517.75;;;-2.86;59.07
24892;BME280;12954;50.688;10.908;2023-02-28T02:36:48;96538.78;;;-2.70;58.75
24892;BME280;12954;50.688;10.908;2023-02-28T02:39:26;96559.69;;;-2.60;58.44
24892;BME280;12954;50.688;10.908;2023-02-28T02:42:01;96563.75;;;-2.50;58.72
24892;BME280;12954;50.688;10.908;2023-02-28T02:44:37;96550.78;;;-2.59;58.39
24892;BME280;12954;50.688;10.908;2023-02-28T02:47:11;96566.72;;;-2.53;58.94
24892;BME280;12954;50.688;10.908;2023-02-28T02:49:44;96473.13;;;-3.34;59.00
24892;BME280;12954;50.688;10.908;2023-02-28T02:52:19;96574.06;;;-2.63;59.06
24892;BME280;12954;50.688;10.908;2023-02-28T02:54:51;96550.22;;;-2.77;58.46
24892;BME280;12954;50.688;10.908;2023-02-28T02:57:25;96507.25;;;-3.02;58.94
24892;BME280;12954;50.688;10.908;2023-02-28T02:59:56;96593.84;;;-2.59;58.24
24892;BME280;12954;50.688;10.908;2023-02-28T03:02:27;96538.72;;;-2.93;58.67
24892;BME280;12954;50.688;10.908;2023-02-28T03:05:04;96579.41;;;-2.71;59.36
24892;BME280;12954;50.688;10.908;2023-02-28T03:07:35;96581.28;;;-2.88;58.70
24892;BME280;12954;50.688;10.908;2023-02-28T03:10:25;96583.75;;;-2.86;59.29
24892;BME280;12954;50.688;10.908;2023-02-28T03:13:04;96582.59;;;-2.83;59.45
24892;BME280;12954;50.688;10.908;2023-02-28T03:15:47;96559.31;;;-2.88;59.13
24892;BME280;12954;50.688;10.908;2023-02-28T03:18:24;96575.44;;;-2.75;59.02
24892;BME280;12954;50.688;10.908;2023-02-28T03:21:02;96567.88;;;-2.78;59.27
24892;BME280;12954;50.688;10.908;2023-02-28T03:23:41;96490.22;;;-3.22;58.89
24892;BME280;12954;50.688;10.908;2023-02-28T03:26:15;96565.88;;;-2.76;58.96
24892;BME280;12954;50.688;10.908;2023-02-28T03:28:53;96569.44;;;-2.61;58.99
24892;BME280;12954;50.688;10.908;2023-02-28T03:31:30;96576.03;;;-2.57;59.40
24892;BME280;12954;50.688;10.908;2023-02-28T03:34:01;96569.47;;;-2.69;59.02
24892;BME280;12954;50.688;10.908;2023-02-28T03:36:36;96570.41;;;-2.62;59.24
24892;BME280;12954;50.688;10.908;2023-02-28T03:39:16;96580.97;;;-2.62;59.31
24892;BME280;12954;50.688;10.908;2023-02-28T03:41:49;96576.38;;;-2.60;58.71
24892;BME280;12954;50.688;10.908;2023-02-28T03:44:21;96574.81;;;-2.77;59.20
24892;BME280;12954;50.688;10.908;2023-02-28T03:46:54;96580.09;;;-2.77;59.75
24892;BME280;12954;50.688;10.908;2023-02-28T03:49:28;96534.63;;;-2.95;59.37
24892;BME280;12954;50.688;10.908;2023-02-28T03:52:00;96569.19;;;-2.74;59.55
24892;BME280;12954;50.688;10.908;2023-02-28T03:54:33;96536.09;;;-2.93;59.21
24892;BME280;12954;50.688;10.908;2023-02-28T03:57:07;96570.94;;;-2.66;58.72
24892;BME280;12954;50.688;10.908;2023-02-28T03:59:42;96576.22;;;-2.66;58.94
24892;BME280;12954;50.688;10.908;2023-02-28T04:02:12;96517.22;;;-3.12;59.00
24892;BME280;12954;50.688;10.908;2023-02-28T04:04:40;96516.34;;;-3.35;59.34
24892;BME280;12954;50.688;10.908;2023-02-28T04:07:16;96541.31;;;-3.23;59.89
24892;BME280;12954;50.688;10.908;2023-02-28T04:09:46;96486.72;;;-3.54;59.78
24892;BME280;12954;50.688;10.908;2023-02-28T04:12:14;96486.19;;;-3.49;59.41
24892;BME280;12954;50.688;10.908;2023-02-28T04:14:43;96584.78;;;-2.95;59.66
24892;BME280;12954;50.688;10.908;2023-02-28T04:17:11;96555.78;;;-3.11;59.68
24892;BME280;12954;50.688;10.908;2023-02-28T04:19:40;96558.13;;;-3.16;59.78
24892;BME280;12954;50.688;10.908;2023-02-28T04:22:08;96563.34;;;-3.00;59.25
24892;BME280;12954;50.688;10.908;2023-02-28T04:24:37;96584.41;;;-2.84;59.41
24892;BME280;12954;50.688;10.908;2023-02-28T04:27:09;96589.63;;;-2.76;59.48
24892;BME280;12954;50.688;10.908;2023-02-28T04:29:38;96587.00;;;-2.76;59.40
24892;BME280;12954;50.688;10.908;2023-02-28T04:32:06;96586.00;;;-2.75;59.55
24892;BME280;12954;50.688;10.908;2023-02-28T04:34:35;96590.59;;;-2.69;59.45
24892;BME280;12954;50.688;10.908;2023-02-28T04:37:05;96594.41;;;-2.71;59.00
24892;BME280;12954;50.688;10.908;2023-02-28T04:39:41;96590.81;;;-2.78;59.77
24892;BME280;12954;50.688;10.908;2023-02-28T04:42:12;96591.00;;;-2.80;59.91
24892;BME280;12954;50.688;10.908;2023-02-28T04:44:41;96585.22;;;-2.83;59.26
24892;BME280;12954;50.688;10.908;2023-02-28T04:47:10;96591.69;;;-2.86;59.79
24892;BME280;12954;50.688;10.908;2023-02-28T04:49:38;96544.94;;;-3.16;59.83
24892;BME280;12954;50.688;10.908;2023-02-28T04:52:08;96590.69;;;-2.93;59.64
24892;BME280;12954;50.688;10.908;2023-02-28T04:54:37;96570.13;;;-3.06;59.56
24892;BME280;12954;50.688;10.908;2023-02-28T04:57:06;96505.44;;;-3.40;59.40
24892;BME280;12954;50.688;10.908;2023-02-28T04:59:36;96590.03;;;-2.87;59.48
24892;BME280;12954;50.688;10.908;2023-02-28T05:02:05;96520.44;;;-3.33;59.24
24892;BME280;12954;50.688;10.908;2023-02-28T05:04:34;96563.03;;;-3.05;59.34
24892;BME280;12954;50.688;10.908;2023-02-28T05:07:03;96592.34;;;-2.92;59.49
24892;BME280;12954;50.688;10.908;2023-02-28T05:09:32;96599.09;;;-2.90;60.02
24892;BME280;12954;50.688;10.908;2023-02-28T05:12:01;96594.31;;;-2.94;59.61
24892;BME280;12954;50.688;10.908;2023-02-28T05:14:30;96608.34;;;-2.94;59.42
24892;BME280;12954;50.688;10.908;2023-02-28T05:16:59;96609.19;;;-2.93;59.74
24892;BME280;12954;50.688;10.908;2023-02-28T05:19:28;96585.84;;;-3.12;59.37
24892;BME280;12954;50.688;10.908;2023-02-28T05:21:56;96610.16;;;-2.94;59.63
24892;BME280;12954;50.688;10.908;2023-02-28T05:24:25;96602.91;;;-2.92;59.42
24892;BME280;12954;50.688;10.908;2023-02-28T05:26:54;96600.44;;;-2.94;59.49
24892;BME280;12954;50.688;10.908;2023-02-28T05:29:23;96602.25;;;-2.94;59.43
24892;BME280;12954;50.688;10.908;2023-02-28T05:31:51;96603.25;;;-2.95;59.24
24892;BME280;12954;50.688;10.908;2023-02-28T05:34:21;96602.78;;;-2.99;58.51
24892;BME280;12954;50.688;10.908;2023-02-28T05:36:50;96606.28;;;-3.06;58.54
24892;BME280;12954;50.688;10.908;2023-02-28T05:39:18;96557.59;;;-3.51;58.73
24892;BME280;12954;50.688;10.908;2023-02-28T05:41:47;96690.41;;;-3.19;59.01
24892;BME280;12954;50.688;10.908;2023-02-28T05:44:15;96607.16;;;-3.30;58.54
24892;BME280;12954;50.688;10.908;2023-02-28T05:46:44;96613.25;;;-3.21;59.18
24892;BME280;12954;50.688;10.908;2023-02-28T05:49:12;96592.50;;;-3.40;59.06
24892;BME280;12954;50.688;10.908;2023-02-28T05:51:42;96483.56;;;-4.12;59.07
24892;BME280;12954;50.688;10.908;2023-02-28T05:54:10;96614.91;;;-3.36;58.75
24892;BME280;12954;50.688;10.908;2023-02-28T05:56:39;96486.34;;;-4.22;58.61
24892;BME280;12954;50.688;10.908;2023-02-28T05:59:11;96627.78;;;-3.41;58.83
24892;BME280;12954;50.688;10.908;2023-02-28T06:01:40;96623.19;;;-3.48;59.03
24892;BME280;12954;50.688;10.908;2023-02-28T06:04:10;96623.84;;;-3.54;58.94
24892;BME280;12954;50.688;10.908;2023-02-28T06:06:57;96620.88;;;-3.59;59.05
24892;BME280;12954;50.688;10.908;2023-02-28T06:09:26;96553.38;;;-4.00;58.79
24892;BME280;12954;50.688;10.908;2023-02-28T06:11:54;96603.75;;;-3.79;59.17
24892;BME280;12954;50.688;10.908;2023-02-28T06:14:23;96634.38;;;-3.62;59.07
24892;BME280;12954;50.688;10.908;2023-02-28T06:16:51;96586.78;;;-3.92;58.87
24892;BME280;12954;50.688;10.908;2023-02-28T06:19:19;96632.56;;;-3.61;59.43
24892;BME280;12954;50.688;10.908;2023-02-28T06:21:49;96640.66;;;-3.63;59.10
24892;BME280;12954;50.688;10.908;2023-02-28T06:24:21;96561.25;;;-4.16;59.27
24892;BME280;12954;50.688;10.908;2023-02-28T06:26:50;96640.66;;;-3.63;59.26
24892;BME280;12954;50.688;10.908;2023-02-28T06:29:19;96639.97;;;-3.65;59.47
24892;BME280;12954;50.688;10.908;2023-02-28T06:31:47;96640.16;;;-3.66;59.18
24892;BME280;12954;50.688;10.908;2023-02-28T06:34:16;96647.88;;;-3.65;59.25
24892;BME280;12954;50.688;10.908;2023-02-28T06:36:45;96650.72;;;-3.66;59.48
24892;BME280;12954;50.688;10.908;2023-02-28T06:39:13;96587.59;;;-4.08;59.64
24892;BME280;12954;50.688;10.908;2023-02-28T06:41:43;96657.47;;;-3.72;59.48
24892;BME280;12954;50.688;10.908;2023-02-28T06:44:22;96663.72;;;-3.73;59.56
24892;BME280;12954;50.688;10.908;2023-02-28T06:46:51;96643.94;;;-3.93;59.42
24892;BME280;12954;50.688;10.908;2023-02-28T06:49:19;96668.00;;;-3.72;59.47
24892;BME280;12954;50.688;10.908;2023-02-28T06:51:48;96666.03;;;-3.70;59.75
24892;BME280;12954;50.688;10.908;2023-02-28T06:54:16;96672.97;;;-3.69;59.08
24892;BME280;12954;50.688;10.908;2023-02-28T06:56:46;96685.16;;;-3.68;59.37
24892;BME280;12954;50.688;10.908;2023-02-28T06:59:15;96645.78;;;-3.85;59.49
24892;BME280;12954;50.688;10.908;2023-02-28T07:01:44;96638.00;;;-3.87;59.40
24892;BME280;12954;50.688;10.908;2023-02-28T07:04:13;96664.41;;;-3.71;59.27
24892;BME280;12954;50.688;10.908;2023-02-28T07:06:42;96682.19;;;-3.57;59.39
24892;BME280;12954;50.688;10.908;2023-02-28T07:09:10;96641.47;;;-3.78;59.65
24892;BME280;12954;50.688;10.908;2023-02-28T07:11:41;96687.47;;;-3.49;59.78
24892;BME280;12954;50.688;10.908;2023-02-28T07:14:11;96535.25;;;-4.35;59.56
24892;BME280;12954;50.688;10.908;2023-02-28T07:16:39;96687.44;;;-3.40;59.38
24892;BME280;12954;50.688;10.908;2023-02-28T07:19:07;96692.41;;;-3.46;59.22
24892;BME280;12954;50.688;10.908;2023-02-28T07:21:36;96684.47;;;-3.29;58.84
24892;BME280;12954;50.688;10.908;2023-02-28T07:24:05;96686.94;;;-3.28;58.93
24892;BME280;12954;50.688;10.908;2023-02-28T07:26:33;96689.06;;;-3.23;59.07
24892;BME280;12954;50.688;10.908;2023-02-28T07:29:02;96656.13;;;-3.52;59.30
24892;BME280;12954;50.688;10.908;2023-02-28T07:31:32;96658.25;;;-3.47;59.12
24892;BME280;12954;50.688;10.908;2023-02-28T07:34:00;96677.56;;;-3.38;58.62
24892;BME280;12954;50.688;10.908;2023-02-28T07:36:29;96604.25;;;-3.75;58.95
24892;BME280;12954;50.688;10.908;2023-02-28T07:38:58;96685.47;;;-3.22;59.58
24892;BME280;12954;50.688;10.908;2023-02-28T07:41:26;96692.41;;;-3.21;59.58
24892;BME280;12954;50.688;10.908;2023-02-28T07:43:57;96671.44;;;-3.23;58.84
24892;BME280;12954;50.688;10.908;2023-02-28T07:46:27;96681.81;;;-3.13;58.79
24892;BME280;12954;50.688;10.908;2023-02-28T07:48:58;96680.50;;;-3.09;58.51
24892;BME280;12954;50.688;10.908;2023-02-28T07:51:26;96703.59;;;-3.27;59.04
24892;BME280;12954;50.688;10.908;2023-02-28T07:53:55;96672.25;;;-3.22;59.26
24892;BME280;12954;50.688;10.908;2023-02-28T07:56:24;96677.25;;;-3.35;59.26
24892;BME280;12954;50.688;10.908;2023-02-28T07:58:52;96685.16;;;-3.35;59.35
24892;BME280;12954;50.688;10.908;2023-02-28T08:01:21;96690.25;;;-3.42;59.53
24892;BME280;12954;50.688;10.908;2023-02-28T08:03:50;96648.72;;;-3.72;59.02
24892;BME280;12954;50.688;10.908;2023-02-28T08:06:21;96687.78;;;-3.44;58.88
24892;BME280;12954;50.688;10.908;2023-02-28T08:08:50;96682.69;;;-3.53;59.00
24892;BME280;12954;50.688;10.908;2023-02-28T08:11:19;96701.31;;;-3.55;59.23
24892;BME280;12954;50.688;10.908;2023-02-28T08:13:47;96686.63;;;-3.57;59.62
24892;BME280;12954;50.688;10.908;2023-02-28T08:16:16;96670.97;;;-3.75;59.82
24892;BME280;12954;50.688;10.908;2023-02-28T08:18:50;96692.41;;;-3.54;59.23
24892;BME280;12954;50.688;10.908;2023-02-28T08:21:20;96667.69;;;-3.69;59.34
24892;BME280;12954;50.688;10.908;2023-02-28T08:23:50;96712.53;;;-3.45;59.57
24892;BME280;12954;50.688;10.908;2023-02-28T08:26:18;96697.81;;;-3.47;59.73
24892;BME280;12954;50.688;10.908;2023-02-28T08:28:47;96668.69;;;-3.54;59.77
24892;BME280;12954;50.688;10.908;2023-02-28T08:31:16;96700.63;;;-3.16;59.77
24892;BME280;12954;50.688;10.908;2023-02-28T08:33:45;96673.91;;;-3.13;59.60
24892;BME280;12954;50.688;10.908;2023-02-28T08:36:15;96669.06;;;-2.94;58.07
24892;BME280;12954;50.688;10.908;2023-02-28T08:38:46;96696.59;;;-2.80;59.14
24892;BME280;12954;50.688;10.908;2023-02-28T08:41:14;96635.59;;;-3.01;58.78
24892;BME280;12954;50.688;10.908;2023-02-28T08:43:43;96696.69;;;-2.57;58.53
24892;BME280;12954;50.688;10.908;2023-02-28T08:46:13;96677.91;;;-2.70;58.45
24892;BME280;12954;50.688;10.908;2023-02-28T08:48:41;96698.81;;;-2.53;58.35
24892;BME280;12954;50.688;10.908;2023-02-28T08:51:12;96700.13;;;-2.49;58.85
24892;BME280;12954;50.688;10.908;2023-02-28T08:53:41;96653.44;;;-2.64;58.71
24892;BME280;12954;50.688;10.908;2023-02-28T08:56:12;96703.00;;;-2.27;58.67
24892;BME280;12954;50.688;10.908;2023-02-28T08:58:40;96672.69;;;-2.40;58.06
24892;BME280;12954;50.688;10.908;2023-02-28T09:01:10;96683.50;;;-2.26;57.92
24892;BME280;12954;50.688;10.908;2023-02-28T09:03:39;96691.63;;;-2.28;58.38
24892;BME280;12954;50.688;10.908;2023-02-28T09:06:10;96694.34;;;-2.13;58.60
24892;BME280;12954;50.688;10.908;2023-02-28T09:08:39;96650.41;;;-2.14;58.20
24892;BME280;12954;50.688;10.908;2023-02-28T09:11:08;96682.25;;;-1.85;57.86
24892;BME280;12954;50.688;10.908;2023-02-28T09:13:39;96695.13;;;-1.74;57.63
24892;BME280;12954;50.688;10.908;2023-02-28T09:16:10;96682.31;;;-1.93;57.60
24892;BME280;12954;50.688;10.908;2023-02-28T09:18:39;96689.16;;;-1.76;57.21
24892;BME280;12954;50.688;10.908;2023-02-28T09:21:10;96666.75;;;-1.88;56.77
24892;BME280;12954;50.688;10.908;2023-02-28T09:23:41;96672.75;;;-1.94;56.57
24892;BME280;12954;50.688;10.908;2023-02-28T09:26:14;96682.88;;;-1.75;56.17
24892;BME280;12954;50.688;10.908;2023-02-28T09:28:44;96692.25;;;-1.95;56.86
24892;BME280;12954;50.688;10.908;2023-02-28T09:31:14;96653.38;;;-2.09;56.53
24892;BME280;12954;50.688;10.908;2023-02-28T09:33:43;96690.25;;;-1.93;56.99
24892;BME280;12954;50.688;10.908;2023-02-28T09:36:12;96684.88;;;-1.77;56.99
24892;BME280;12954;50.688;10.908;2023-02-28T09:38:40;96643.00;;;-1.96;56.21
24892;BME280;12954;50.688;10.908;2023-02-28T09:41:14;96694.38;;;-1.68;56.40
24892;BME280;12954;50.688;10.908;2023-02-28T09:43:47;96678.69;;;-1.92;56.46
24892;BME280;12954;50.688;10.908;2023-02-28T09:46:27;96629.72;;;-2.11;56.45
24892;BME280;12954;50.688;10.908;2023-02-28T09:49:00;96622.34;;;-2.15;56.07
24892;BME280;12954;50.688;10.908;2023-02-28T09:51:36;96695.69;;;-1.64;55.55
24892;BME280;12954;50.688;10.908;2023-02-28T09:54:13;96689.56;;;-1.87;56.05
24892;BME280;12954;50.688;10.908;2023-02-28T09:56:49;96674.41;;;-1.93;55.87
24892;BME280;12954;50.688;10.908;2023-02-28T09:59:38;96696.50;;;-1.63;54.46
24892;BME280;12954;50.688;10.908;2023-02-28T10:02:19;96694.38;;;-1.68;54.73
24892;BME280;12954;50.688;10.908;2023-02-28T10:04:52;96678.84;;;-1.71;54.15
24892;BME280;12954;50.688;10.908;2023-02-28T10:07:36;96667.94;;;-1.68;54.50
24892;BME280;12954;50.688;10.908;2023-02-28T10:10:18;96637.38;;;-1.93;53.86
24892;BME280;12954;50.688;10.908;2023-02-28T10:12:51;96701.38;;;-1.52;54.49
24892;BME280;12954;50.688;10.908;2023-02-28T10:15:25;96701.72;;;-1.33;52.49
24892;BME280;12954;50.688;10.908;2023-02-28T10:17:57;96666.66;;;-1.72;52.86
24892;BME280;12954;50.688;10.908;2023-02-28T10:20:37;96699.25;;;-1.34;52.89
24892;BME280;12954;50.688;10.908;2023-02-28T10:23:11;96699.19;;;-1.26;51.71
24892;BME280;12954;50.688;10.908;2023-02-28T10:25:45;96686.09;;;-1.65;52.64
24892;BME280;12954;50.688;10.908;2023-02-28T10:28:16;96699.84;;;-1.47;52.92
24892;BME280;12954;50.688;10.908;2023-02-28T10:30:49;96700.38;;;-1.29;52.55
24892;BME280;12954;50.688;10.908;2023-02-28T10:33:22;96695.72;;;-1.27;52.62
24892;BME280;12954;50.688;10.908;2023-02-28T10:35:51;96669.25;;;-1.27;51.19
24892;BME280;12954;50.688;10.908;2023-02-28T10:38:21;96688.53;;;-1.03;50.01
24892;BME280;12954;50.688;10.908;2023-02-28T10:40:50;96704.50;;;-1.11;49.45
24892;BME280;12954;50.688;10.908;2023-02-28T10:43:21;96703.66;;;-1.27;50.14
24892;BME280;12954;50.688;10.908;2023-02-28T10:46:16;96701.13;;;-1.20;49.99
24892;BME280;12954;50.688;10.908;2023-02-28T10:49:02;96687.34;;;-1.30;49.50
24892;BME280;12954;50.688;10.908;2023-02-28T10:51:36;96641.81;;;-1.71;50.47
24892;BME280;12954;50.688;10.908;2023-02-28T10:54:05;96703.13;;;-1.22;50.67
24892;BME280;12954;50.688;10.908;2023-02-28T10:56:34;96701.50;;;-1.08;49.93
24892;BME280;12954;50.688;10.908;2023-02-28T10:59:11;96636.47;;;-1.40;49.87
24892;BME280;12954;50.688;10.908;2023-02-28T11:01:51;96696.56;;;-1.11;50.14
24892;BME280;12954;50.688;10.908;2023-02-28T11:04:34;96665.47;;;-1.09;49.52
24892;BME280;12954;50.688;10.908;2023-02-28T11:07:06;96696.09;;;-0.78;50.20
24892;BME280;12954;50.688;10.908;2023-02-28T11:09:50;96698.66;;;-0.55;50.50
24892;BME280;12954;50.688;10.908;2023-02-28T11:12:22;96689.75;;;-0.18;49.94
24892;BME280;12954;50.688;10.908;2023-02-28T11:14:53;96695.25;;;0.16;49.86
24892;BME280;12954;50.688;10.908;2023-02-28T11:17:26;96674.09;;;0.44;48.12
24892;BME280;12954;50.688;10.908;2023-02-28T11:19:57;96592.72;;;0.09;46.93
24892;BME280;12954;50.688;10.908;2023-02-28T11:22:30;96668.53;;;0.60;45.81
24892;BME280;12954;50.688;10.908;2023-02-28T11:25:02;96576.88;;;-0.06;45.05
24892;BME280;12954;50.688;10.908;2023-02-28T11:27:44;96613.31;;;0.07;45.46
24892;BME280;12954;50.688;10.908;2023-02-28T11:30:25;96658.69;;;0.33;45.27
24892;BME280;12954;50.688;10.908;2023-02-28T11:32:56;96663.91;;;0.26;45.57
24892;BME280;12954;50.688;10.908;2023-02-28T11:35:28;96656.28;;;0.38;44.81
24892;BME280;12954;50.688;10.908;2023-02-28T11:37:58;96622.59;;;-0.04;45.25
24892;BME280;12954;50.688;10.908;2023-02-28T11:40:34;96663.03;;;0.19;46.20
24892;BME280;12954;50.688;10.908;2023-02-28T11:43:16;96601.72;;;0.08;45.18
24892;BME280;12954;50.688;10.908;2023-02-28T11:45:59;96605.69;;;0.18;44.90
24892;BME280;12954;50.688;10.908;2023-02-28T11:48:37;96630.38;;;0.40;44.65
24892;BME280;12954;50.688;10.908;2023-02-28T11:51:15;96658.44;;;0.49;44.72
24892;BME280;12954;50.688;10.908;2023-02-28T11:54:07;96642.56;;;0.56;44.28
24892;BME280;12954;50.688;10.908;2023-02-28T11:56:41;96647.56;;;0.44;44.13
24892;BME280;12954;50.688;10.908;2023-02-28T11:59:29;96649.53;;;0.35;44.21
24892;BME280;12954;50.688;10.908;2023-02-28T12:02:06;96650.72;;;0.33;44.21
24892;BME280;12954;50.688;10.908;2023-02-28T12:04:54;96645.16;;;0.28;44.03
24892;BME280;12954;50.688;10.908;2023-02-28T12:07:31;96644.03;;;0.16;44.07
24892;BME280;12954;50.688;10.908;2023-02-28T12:10:09;96609.84;;;-0.30;45.18
24892;BME280;12954;50.688;10.908;2023-02-28T12:12:58;96597.13;;;-0.20;44.82
24892;BME280;12954;50.688;10.908;2023-02-28T12:15:38;96639.53;;;0.16;44.24
24892;BME280;12954;50.688;10.908;2023-02-28T12:18:24;96555.31;;;-0.39;44.92
24892;BME280;12954;50.688;10.908;2023-02-28T12:21:02;96645.41;;;0.33;44.43
24892;BME280;12954;50.688;10.908;2023-02-28T12:23:56;96645.16;;;0.28;44.59
24892;BME280;12954;50.688;10.908;2023-02-28T12:26:34;96646.94;;;0.42;44.50
24892;BME280;12954;50.688;10.908;2023-02-28T12:29:10;96619.69;;;0.12;44.93
24892;BME280;12954;50.688;10.908;2023-02-28T12:31:43;96645.63;;;0.31;45.51
24892;BME280;12954;50.688;10.908;2023-02-28T12:34:15;96641.63;;;0.42;45.19
24892;BME280;12954;50.688;10.908;2023-02-28T12:36:47;96601.69;;;0.29;45.40
24892;BME280;12954;50.688;10.908;2023-02-28T12:39:19;96635.66;;;0.61;45.62
24892;BME280;12954;50.688;10.908;2023-02-28T12:41:54;96585.59;;;0.58;45.21
24892;BME280;12954;50.688;10.908;2023-02-28T12:44:30;96627.16;;;1.00;44.42
24892;BME280;12954;50.688;10.908;2023-02-28T12:46:59;96630.03;;;0.98;43.90
24892;BME280;12954;50.688;10.908;2023-02-28T12:49:33;96627.44;;;0.77;44.53
24892;BME280;12954;50.688;10.908;2023-02-28T12:52:06;96624.22;;;0.88;44.38
24892;BME280;12954;50.688;10.908;2023-02-28T12:54:44;96568.38;;;0.47;44.70
24892;BME280;12954;50.688;10.908;2023-02-28T12:57:18;96569.88;;;0.84;43.11
24892;BME280;12954;50.688;10.908;2023-02-28T12:59:54;96628.81;;;1.01;43.02
24892;BME280;12954;50.688;10.908;2023-02-28T13:02:41;96604.13;;;0.79;43.73
24892;BME280;12954;50.688;10.908;2023-02-28T13:05:50;96597.66;;;0.88;43.43
24892;BME280;12954;50.688;10.908;2023-02-28T13:08:59;96595.00;;;0.88;43.71
24892;BME280;12954;50.688;10.908;2023-02-28T13:11:31;96588.06;;;0.60;43.93
24892;BME280;12954;50.688;10.908;2023-02-28T13:14:02;96601.69;;;0.78;44.15
24892;BME280;12954;50.688;10.908;2023-02-28T13:16:51;96594.44;;;0.93;43.85
24892;BME280;12954;50.688;10.908;2023-02-28T13:19:22;96599.31;;;0.89;43.95
24892;BME280;12954;50.688;10.908;2023-02-28T13:21:52;96600.16;;;0.96;43.66
24892;BME280;12954;50.688;10.908;2023-02-28T13:27:39;96583.66;;;0.73;44.44
24892;BME280;12954;50.688;10.908;2023-02-28T13:33:25;96600.59;;;1.00;44.56